sensor_id;sensor_type;location;lat;lon;timestamp;pressure;altitude;pressure_sealevel;temperature;humidity
27685;BME280;46113;50.130;8.526;2023-12-20T05:17:54;98986.06;;;0.88;92.69
27685;BME280;46113;50.130;8.526;2023-12-20T05:20:21;98979.69;;;1.03;92.34
27685;BME280;46113;50.130;8.526;2023-12-20T05:22:49;98982.31;;;1.01;92.63
27685;BME280;46113;50.130;8.526;2023-12-20T05:25:16;98997.06;;;1.04;92.22
27685;BME280;46113;50.130;8.526;2023-12-20T05:27:43;98991.06;;;0.99;92.35
27685;BME280;46113;50.130;8.526;2023-12-20T05:30:10;98996.19;;;1.03;92.16
27685;BME280;46113;50.130;8.526;2023-12-20T05:32:37;98996.25;;;0.99;92.35
27685;BME280;46113;50.130;8.526;2023-12-20T05:35:04;99004.00;;;1.02;92.28
27685;BME280;46113;50.130;8.526;2023-12-20T05:37:31;99006.63;;;1.00;92.73
27685;BME280;46113;50.130;8.526;2023-12-20T05:39:58;99010.44;;;0.85;92.74
27685;BME280;46113;50.130;8.526;2023-12-20T05:42:25;99014.69;;;0.89;93.66
27685;BME280;46113;50.130;8.526;2023-12-20T05:44:52;99025.63;;;1.07;92.88
27685;BME280;46113;50.130;8.526;2023-12-20T05:47:21;99023.91;;;1.06;92.39
27685;BME280;46113;50.130;8.526;2023-12-20T05:49:48;99027.41;;;1.05;92.70
27685;BME280;46113;50.130;8.526;2023-12-20T05:52:16;99027.69;;;0.91;93.16
27685;BME280;46113;50.130;8.526;2023-12-20T05:54:43;99033.56;;;0.99;93.37
27685;BME280;46113;50.130;8.526;2023-12-20T05:57:10;99038.94;;;0.93;93.40
27685;BME280;46113;50.130;8.526;2023-12-20T05:59:37;99029.72;;;0.78;92.35
27685;BME280;46113;50.130;8.526;2023-12-20T06:02:04;99030.75;;;0.67;92.59
27685;BME280;46113;50.130;8.526;2023-12-20T06:04:31;99031.38;;;0.80;92.12
27685;BME280;46113;50.130;8.526;2023-12-20T06:06:59;99020.16;;;0.77;91.95
27685;BME280;46113;50.130;8.526;2023-12-20T06:09:29;99035.69;;;0.81;91.24
27685;BME280;46113;50.130;8.526;2023-12-20T06:11:57;99040.78;;;0.45;92.03
27685;BME280;46113;50.130;8.526;2023-12-20T06:14:24;99050.00;;;0.62;91.26
27685;BME280;46113;50.130;8.526;2023-12-20T06:16:51;99053.66;;;0.51;90.74
27685;BME280;46113;50.130;8.526;2023-12-20T06:19:18;99051.25;;;0.42;90.78
27685;BME280;46113;50.130;8.526;2023-12-20T06:21:44;99050.75;;;0.21;90.83
27685;BME280;46113;50.130;8.526;2023-12-20T06:24:11;99053.44;;;0.16;90.90
27685;BME280;46113;50.130;8.526;2023-12-20T06:26:38;99064.66;;;0.20;90.48
27685;BME280;46113;50.130;8.526;2023-12-20T06:29:05;99066.34;;;0.23;91.01
27685;BME280;46113;50.130;8.526;2023-12-20T06:34:20;99070.22;;;0.49;90.67
27685;BME280;46113;50.130;8.526;2023-12-20T06:36:46;99064.09;;;0.50;91.47
27685;BME280;46113;50.130;8.526;2023-12-20T06:39:13;99070.06;;;0.56;90.77
27685;BME280;46113;50.130;8.526;2023-12-20T06:41:40;99064.81;;;0.58;90.77
27685;BME280;46113;50.130;8.526;2023-12-20T06:44:07;99056.94;;;0.61;90.93
27685;BME280;46113;50.130;8.526;2023-12-20T06:46:34;99069.97;;;0.60;90.42
27685;BME280;46113;50.130;8.526;2023-12-20T06:49:01;99067.03;;;0.33;90.38
27685;BME280;46113;50.130;8.526;2023-12-20T06:51:28;99071.03;;;0.49;90.03
27685;BME280;46113;50.130;8.526;2023-12-20T06:53:55;99071.94;;;0.48;90.05
27685;BME280;46113;50.130;8.526;2023-12-20T06:56:22;99075.25;;;0.56;89.14
27685;BME280;46113;50.130;8.526;2023-12-20T06:58:48;99072.78;;;0.50;88.85
27685;BME280;46113;50.130;8.526;2023-12-20T07:01:15;99080.69;;;0.44;89.08
27685;BME280;46113;50.130;8.526;2023-12-20T07:03:43;99086.88;;;0.40;88.42
27685;BME280;46113;50.130;8.526;2023-12-20T07:06:10;99077.28;;;0.40;88.29
27685;BME280;46113;50.130;8.526;2023-12-20T07:08:36;99077.06;;;0.53;88.40
27685;BME280;46113;50.130;8.526;2023-12-20T07:11:03;99078.00;;;0.50;88.76
27685;BME280;46113;50.130;8.526;2023-12-20T07:13:30;99071.28;;;0.38;88.43
27685;BME280;46113;50.130;8.526;2023-12-20T07:15:57;99072.09;;;0.39;87.85
27685;BME280;46113;50.130;8.526;2023-12-20T07:18:24;99084.09;;;-0.01;88.47
27685;BME280;46113;50.130;8.526;2023-12-20T07:20:51;99084.91;;;0.01;88.03
27685;BME280;46113;50.130;8.526;2023-12-20T07:23:18;99082.41;;;-0.02;87.97
27685;BME280;46113;50.130;8.526;2023-12-20T07:25:46;99092.78;;;-0.02;88.01
27685;BME280;46113;50.130;8.526;2023-12-20T07:28:13;99092.81;;;-0.04;88.20
27685;BME280;46113;50.130;8.526;2023-12-20T07:30:40;99094.50;;;-0.01;88.20
27685;BME280;46113;50.130;8.526;2023-12-20T07:33:07;99095.41;;;-0.02;88.07
27685;BME280;46113;50.130;8.526;2023-12-20T07:35:35;99097.00;;;0.03;88.63
27685;BME280;46113;50.130;8.526;2023-12-20T07:38:02;99094.41;;;0.05;88.55
27685;BME280;46113;50.130;8.526;2023-12-20T07:40:29;99111.44;;;0.22;88.28
27685;BME280;46113;50.130;8.526;2023-12-20T07:42:56;99105.66;;;0.07;89.14
27685;BME280;46113;50.130;8.526;2023-12-20T07:45:23;99096.97;;;0.08;88.32
27685;BME280;46113;50.130;8.526;2023-12-20T07:47:49;99094.09;;;0.22;88.54
27685;BME280;46113;50.130;8.526;2023-12-20T07:50:17;99097.56;;;0.23;88.19
27685;BME280;46113;50.130;8.526;2023-12-20T07:52:44;99093.00;;;0.36;88.10
27685;BME280;46113;50.130;8.526;2023-12-20T07:55:11;99089.47;;;0.40;88.19
27685;BME280;46113;50.130;8.526;2023-12-20T07:57:38;99092.41;;;0.20;87.65
27685;BME280;46113;50.130;8.526;2023-12-20T08:00:05;99103.63;;;0.23;87.19
27685;BME280;46113;50.130;8.526;2023-12-20T08:02:32;99103.19;;;0.48;86.88
27685;BME280;46113;50.130;8.526;2023-12-20T08:04:59;99104.22;;;0.39;86.51
27685;BME280;46113;50.130;8.526;2023-12-20T08:07:25;99108.91;;;0.20;87.34
27685;BME280;46113;50.130;8.526;2023-12-20T08:09:52;99098.00;;;0.47;87.60
27685;BME280;46113;50.130;8.526;2023-12-20T08:12:21;99110.84;;;0.56;86.61
27685;BME280;46113;50.130;8.526;2023-12-20T08:14:48;99114.66;;;0.38;86.42
27685;BME280;46113;50.130;8.526;2023-12-20T08:17:15;99117.53;;;0.69;86.14
27685;BME280;46113;50.130;8.526;2023-12-20T08:19:42;99104.84;;;0.52;85.19
27685;BME280;46113;50.130;8.526;2023-12-20T08:22:09;99108.38;;;0.48;85.48
27685;BME280;46113;50.130;8.526;2023-12-20T08:24:36;99118.34;;;0.72;85.15
27685;BME280;46113;50.130;8.526;2023-12-20T08:27:04;99126.88;;;0.81;84.53
27685;BME280;46113;50.130;8.526;2023-12-20T08:29:31;99120.81;;;0.79;84.46
27685;BME280;46113;50.130;8.526;2023-12-20T08:31:58;99111.63;;;0.60;84.92
27685;BME280;46113;50.130;8.526;2023-12-20T08:34:25;99113.72;;;0.42;84.46
27685;BME280;46113;50.130;8.526;2023-12-20T08:36:52;99120.22;;;0.65;84.18
27685;BME280;46113;50.130;8.526;2023-12-20T08:39:19;99104.75;;;0.57;84.04
27685;BME280;46113;50.130;8.526;2023-12-20T08:41:45;99108.75;;;0.75;83.94
27685;BME280;46113;50.130;8.526;2023-12-20T08:44:12;99108.84;;;0.70;83.17
27685;BME280;46113;50.130;8.526;2023-12-20T08:46:39;99103.66;;;0.67;83.85
27685;BME280;46113;50.130;8.526;2023-12-20T08:49:06;99100.53;;;0.95;83.80
27685;BME280;46113;50.130;8.526;2023-12-20T08:51:34;99097.13;;;0.93;83.21
27685;BME280;46113;50.130;8.526;2023-12-20T08:54:00;99100.84;;;0.80;83.26
27685;BME280;46113;50.130;8.526;2023-12-20T08:56:27;99103.31;;;0.86;83.17
27685;BME280;46113;50.130;8.526;2023-12-20T08:58:54;99090.13;;;0.94;82.89
27685;BME280;46113;50.130;8.526;2023-12-20T09:01:20;99098.25;;;0.80;82.66
27685;BME280;46113;50.130;8.526;2023-12-20T09:03:47;99105.69;;;0.99;83.07
27685;BME280;46113;50.130;8.526;2023-12-20T09:06:14;99113.59;;;0.92;82.65
27685;BME280;46113;50.130;8.526;2023-12-20T09:08:42;99110.06;;;0.96;82.23
27685;BME280;46113;50.130;8.526;2023-12-20T09:11:08;99116.94;;;1.01;82.38
27685;BME280;46113;50.130;8.526;2023-12-20T09:13:36;99116.03;;;1.03;82.15
27685;BME280;46113;50.130;8.526;2023-12-20T09:16:03;99116.63;;;0.72;82.68
27685;BME280;46113;50.130;8.526;2023-12-20T09:18:30;99118.16;;;0.82;82.57
27685;BME280;46113;50.130;8.526;2023-12-20T09:20:56;99113.66;;;0.91;82.01
27685;BME280;46113;50.130;8.526;2023-12-20T09:23:23;99121.50;;;0.89;82.85
27685;BME280;46113;50.130;8.526;2023-12-20T09:25:50;99119.88;;;0.83;82.33
27685;BME280;46113;50.130;8.526;2023-12-20T09:28:20;99129.25;;;0.92;83.15
27685;BME280;46113;50.130;8.526;2023-12-20T09:30:47;99127.94;;;1.17;82.91
27685;BME280;46113;50.130;8.526;2023-12-20T09:33:14;99125.59;;;1.03;81.82
27685;BME280;46113;50.130;8.526;2023-12-20T09:35:42;99131.66;;;1.05;81.88
27685;BME280;46113;50.130;8.526;2023-12-20T09:38:10;99134.94;;;1.13;81.74
27685;BME280;46113;50.130;8.526;2023-12-20T09:40:41;99123.38;;;1.27;80.76
27685;BME280;46113;50.130;8.526;2023-12-20T09:43:11;99138.53;;;1.07;80.16
27685;BME280;46113;50.130;8.526;2023-12-20T09:45:41;99137.47;;;1.16;80.92
27685;BME280;46113;50.130;8.526;2023-12-20T09:48:12;99118.66;;;1.44;80.79
27685;BME280;46113;50.130;8.526;2023-12-20T09:50:41;99120.59;;;1.34;80.65
27685;BME280;46113;50.130;8.526;2023-12-20T09:53:14;99122.88;;;1.09;81.39
27685;BME280;46113;50.130;8.526;2023-12-20T09:55:42;99114.44;;;1.37;80.98
27685;BME280;46113;50.130;8.526;2023-12-20T09:58:09;99122.78;;;1.53;80.31
27685;BME280;46113;50.130;8.526;2023-12-20T10:00:37;99122.00;;;1.49;80.40
27685;BME280;46113;50.130;8.526;2023-12-20T10:03:06;99117.75;;;1.45;80.02
27685;BME280;46113;50.130;8.526;2023-12-20T10:05:34;99113.28;;;1.51;80.86
27685;BME280;46113;50.130;8.526;2023-12-20T10:08:01;99115.19;;;1.42;80.86
27685;BME280;46113;50.130;8.526;2023-12-20T10:10:30;99115.78;;;1.55;80.13
27685;BME280;46113;50.130;8.526;2023-12-20T10:13:11;99113.84;;;1.24;80.73
27685;BME280;46113;50.130;8.526;2023-12-20T10:15:39;99106.88;;;1.26;80.52
27685;BME280;46113;50.130;8.526;2023-12-20T10:18:08;99114.19;;;1.49;81.00
27685;BME280;46113;50.130;8.526;2023-12-20T10:20:35;99104.53;;;1.53;80.47
27685;BME280;46113;50.130;8.526;2023-12-20T10:23:02;99113.13;;;1.58;80.30
27685;BME280;46113;50.130;8.526;2023-12-20T10:25:28;99114.41;;;1.40;80.39
27685;BME280;46113;50.130;8.526;2023-12-20T10:28:12;99108.00;;;1.54;80.28
27685;BME280;46113;50.130;8.526;2023-12-20T10:30:40;99106.94;;;1.62;80.13
27685;BME280;46113;50.130;8.526;2023-12-20T10:33:07;99108.13;;;1.47;80.40
27685;BME280;46113;50.130;8.526;2023-12-20T10:35:36;99094.16;;;1.50;80.42
27685;BME280;46113;50.130;8.526;2023-12-20T10:38:06;99092.00;;;1.69;79.82
27685;BME280;46113;50.130;8.526;2023-12-20T10:40:36;99087.41;;;1.79;80.45
27685;BME280;46113;50.130;8.526;2023-12-20T10:43:05;99081.22;;;1.83;79.56
27685;BME280;46113;50.130;8.526;2023-12-20T10:45:32;99077.53;;;1.56;79.21
27685;BME280;46113;50.130;8.526;2023-12-20T10:48:01;99074.56;;;1.71;79.41
27685;BME280;46113;50.130;8.526;2023-12-20T10:50:29;99071.88;;;1.74;78.92
27685;BME280;46113;50.130;8.526;2023-12-20T10:52:57;99060.19;;;1.89;79.40
27685;BME280;46113;50.130;8.526;2023-12-20T10:55:25;99056.50;;;1.98;79.45
27685;BME280;46113;50.130;8.526;2023-12-20T10:58:07;99056.88;;;1.46;79.17
27685;BME280;46113;50.130;8.526;2023-12-20T11:00:39;99052.69;;;1.77;78.38
27685;BME280;46113;50.130;8.526;2023-12-20T11:03:09;99043.09;;;1.78;79.18
27685;BME280;46113;50.130;8.526;2023-12-20T11:05:49;99040.66;;;1.71;78.52
27685;BME280;46113;50.130;8.526;2023-12-20T11:08:28;99034.78;;;1.98;78.87
27685;BME280;46113;50.130;8.526;2023-12-20T11:11:17;99031.75;;;1.79;78.70
27685;BME280;46113;50.130;8.526;2023-12-20T11:13:57;99026.66;;;2.09;78.63
27685;BME280;46113;50.130;8.526;2023-12-20T11:16:26;99037.25;;;2.02;77.27
27685;BME280;46113;50.130;8.526;2023-12-20T11:19:07;99043.91;;;2.14;77.86
27685;BME280;46113;50.130;8.526;2023-12-20T11:21:34;99041.91;;;2.24;77.28
27685;BME280;46113;50.130;8.526;2023-12-20T11:24:05;99034.63;;;2.04;77.34
27685;BME280;46113;50.130;8.526;2023-12-20T11:26:32;99039.50;;;2.17;78.20
27685;BME280;46113;50.130;8.526;2023-12-20T11:29:36;99032.47;;;2.20;76.83
27685;BME280;46113;50.130;8.526;2023-12-20T11:34:51;99036.31;;;2.05;77.08
27685;BME280;46113;50.130;8.526;2023-12-20T11:37:19;99040.88;;;2.30;77.47
27685;BME280;46113;50.130;8.526;2023-12-20T11:40:00;99031.91;;;2.40;77.21
27685;BME280;46113;50.130;8.526;2023-12-20T11:42:27;99039.38;;;2.21;76.53
27685;BME280;46113;50.130;8.526;2023-12-20T11:44:55;99032.19;;;2.29;75.98
27685;BME280;46113;50.130;8.526;2023-12-20T11:47:23;99044.84;;;2.12;76.57
27685;BME280;46113;50.130;8.526;2023-12-20T11:49:50;99032.31;;;1.92;75.76
27685;BME280;46113;50.130;8.526;2023-12-20T11:52:19;99029.03;;;1.85;76.46
27685;BME280;46113;50.130;8.526;2023-12-20T11:54:45;99023.19;;;2.08;76.48
27685;BME280;46113;50.130;8.526;2023-12-20T11:57:13;99026.16;;;1.94;76.23
27685;BME280;46113;50.130;8.526;2023-12-20T11:59:42;99017.03;;;2.11;76.16
27685;BME280;46113;50.130;8.526;2023-12-20T12:02:11;99017.78;;;2.16;76.03
27685;BME280;46113;50.130;8.526;2023-12-20T12:04:38;99027.00;;;1.95;75.62
27685;BME280;46113;50.130;8.526;2023-12-20T12:07:07;99018.59;;;1.85;76.58
27685;BME280;46113;50.130;8.526;2023-12-20T12:09:34;99015.91;;;1.86;76.82
27685;BME280;46113;50.130;8.526;2023-12-20T12:12:01;99010.09;;;1.77;77.60
27685;BME280;46113;50.130;8.526;2023-12-20T12:14:28;99009.97;;;1.81;76.09
27685;BME280;46113;50.130;8.526;2023-12-20T12:16:55;99018.13;;;1.67;76.92
27685;BME280;46113;50.130;8.526;2023-12-20T12:19:23;99023.41;;;2.00;76.84
27685;BME280;46113;50.130;8.526;2023-12-20T12:21:51;99025.28;;;1.95;77.40
27685;BME280;46113;50.130;8.526;2023-12-20T12:24:21;99014.53;;;2.06;77.19
27685;BME280;46113;50.130;8.526;2023-12-20T12:26:52;99017.81;;;2.14;76.85
27685;BME280;46113;50.130;8.526;2023-12-20T12:29:19;99009.19;;;2.12;77.01
27685;BME280;46113;50.130;8.526;2023-12-20T12:31:45;99010.31;;;2.02;77.56
27685;BME280;46113;50.130;8.526;2023-12-20T12:34:12;99013.09;;;1.94;77.31
27685;BME280;46113;50.130;8.526;2023-12-20T12:36:39;99007.75;;;2.00;77.17
27685;BME280;46113;50.130;8.526;2023-12-20T12:39:06;99007.56;;;2.07;76.99
27685;BME280;46113;50.130;8.526;2023-12-20T12:41:33;98998.00;;;2.07;77.85
27685;BME280;46113;50.130;8.526;2023-12-20T12:44:00;98998.94;;;2.05;77.23
27685;BME280;46113;50.130;8.526;2023-12-20T12:46:40;98995.19;;;2.15;76.68
27685;BME280;46113;50.130;8.526;2023-12-20T12:49:07;98988.34;;;2.11;77.32
27685;BME280;46113;50.130;8.526;2023-12-20T12:51:34;98982.03;;;2.18;76.50
27685;BME280;46113;50.130;8.526;2023-12-20T12:54:00;98987.66;;;2.36;76.41
27685;BME280;46113;50.130;8.526;2023-12-20T12:56:27;98985.25;;;2.28;75.46
27685;BME280;46113;50.130;8.526;2023-12-20T12:58:54;98977.34;;;2.29;74.92
27685;BME280;46113;50.130;8.526;2023-12-20T13:01:21;98977.97;;;2.39;75.49
27685;BME280;46113;50.130;8.526;2023-12-20T13:03:48;98977.13;;;2.07;75.66
27685;BME280;46113;50.130;8.526;2023-12-20T13:06:15;98968.03;;;2.21;74.98
27685;BME280;46113;50.130;8.526;2023-12-20T13:08:42;98962.28;;;2.09;75.20
27685;BME280;46113;50.130;8.526;2023-12-20T13:11:11;98950.41;;;2.29;75.95
27685;BME280;46113;50.130;8.526;2023-12-20T13:13:37;98941.97;;;2.19;74.69
27685;BME280;46113;50.130;8.526;2023-12-20T13:16:04;98936.31;;;2.35;74.59
27685;BME280;46113;50.130;8.526;2023-12-20T13:18:31;98939.00;;;2.33;74.08
27685;BME280;46113;50.130;8.526;2023-12-20T13:20:58;98934.34;;;2.43;73.39
27685;BME280;46113;50.130;8.526;2023-12-20T13:23:25;98937.47;;;2.54;73.48
27685;BME280;46113;50.130;8.526;2023-12-20T13:25:52;98920.81;;;2.28;73.60
27685;BME280;46113;50.130;8.526;2023-12-20T13:28:19;98935.66;;;2.58;73.16
27685;BME280;46113;50.130;8.526;2023-12-20T13:30:46;98926.97;;;2.58;71.98
27685;BME280;46113;50.130;8.526;2023-12-20T13:33:13;98916.66;;;2.53;72.96
27685;BME280;46113;50.130;8.526;2023-12-20T13:35:39;98907.19;;;2.49;72.17
27685;BME280;46113;50.130;8.526;2023-12-20T13:38:06;98913.34;;;2.48;72.20
27685;BME280;46113;50.130;8.526;2023-12-20T13:40:34;98906.59;;;2.39;71.32
27685;BME280;46113;50.130;8.526;2023-12-20T13:43:01;98909.84;;;2.47;71.79
27685;BME280;46113;50.130;8.526;2023-12-20T13:45:29;98907.81;;;2.27;71.91
27685;BME280;46113;50.130;8.526;2023-12-20T13:47:56;98918.84;;;2.07;70.71
27685;BME280;46113;50.130;8.526;2023-12-20T13:50:23;98914.28;;;2.15;71.93
27685;BME280;46113;50.130;8.526;2023-12-20T13:52:50;98904.72;;;2.14;71.14
27685;BME280;46113;50.130;8.526;2023-12-20T13:55:17;98906.38;;;2.17;71.20
27685;BME280;46113;50.130;8.526;2023-12-20T13:57:44;98903.22;;;2.05;71.06
27685;BME280;46113;50.130;8.526;2023-12-20T14:00:22;98900.66;;;2.04;71.55
27685;BME280;46113;50.130;8.526;2023-12-20T14:02:49;98903.50;;;1.94;71.36
27685;BME280;46113;50.130;8.526;2023-12-20T14:05:16;98914.34;;;2.12;71.61
27685;BME280;46113;50.130;8.526;2023-12-20T14:07:49;98914.19;;;2.17;71.26
27685;BME280;46113;50.130;8.526;2023-12-20T14:10:17;98905.03;;;2.03;71.48
27685;BME280;46113;50.130;8.526;2023-12-20T14:12:43;98910.31;;;2.00;72.81
27685;BME280;46113;50.130;8.526;2023-12-20T14:15:11;98915.44;;;2.05;72.38
27685;BME280;46113;50.130;8.526;2023-12-20T14:17:40;98905.03;;;2.03;72.53
27685;BME280;46113;50.130;8.526;2023-12-20T14:20:09;98914.72;;;1.99;71.55
27685;BME280;46113;50.130;8.526;2023-12-20T14:22:36;98911.34;;;1.94;71.77
27685;BME280;46113;50.130;8.526;2023-12-20T14:25:05;98923.41;;;1.98;72.12
27685;BME280;46113;50.130;8.526;2023-12-20T14:27:33;98910.31;;;2.00;73.21
27685;BME280;46113;50.130;8.526;2023-12-20T14:30:00;98902.72;;;1.92;73.60
27685;BME280;46113;50.130;8.526;2023-12-20T14:32:27;98902.41;;;1.71;73.91
27685;BME280;46113;50.130;8.526;2023-12-20T14:34:54;98896.97;;;1.79;74.17
27685;BME280;46113;50.130;8.526;2023-12-20T14:37:22;98900.03;;;1.62;73.19
27685;BME280;46113;50.130;8.526;2023-12-20T14:39:49;98887.25;;;1.86;73.67
27685;BME280;46113;50.130;8.526;2023-12-20T14:42:15;98900.91;;;1.94;73.70
27685;BME280;46113;50.130;8.526;2023-12-20T14:44:43;98911.69;;;1.82;73.15
27685;BME280;46113;50.130;8.526;2023-12-20T14:47:10;98913.06;;;1.95;73.42
27685;BME280;46113;50.130;8.526;2023-12-20T14:49:37;98903.09;;;1.78;73.51
27685;BME280;46113;50.130;8.526;2023-12-20T14:52:04;98912.22;;;1.95;73.61
27685;BME280;46113;50.130;8.526;2023-12-20T14:54:31;98915.03;;;1.87;74.07
27685;BME280;46113;50.130;8.526;2023-12-20T14:56:59;98896.91;;;1.82;73.54
27685;BME280;46113;50.130;8.526;2023-12-20T14:59:31;98894.09;;;1.90;73.36
27685;BME280;46113;50.130;8.526;2023-12-20T15:01:58;98897.56;;;1.89;73.29
27685;BME280;46113;50.130;8.526;2023-12-20T15:04:25;98905.09;;;2.00;73.82
27685;BME280;46113;50.130;8.526;2023-12-20T15:06:55;98904.16;;;2.02;74.03
27685;BME280;46113;50.130;8.526;2023-12-20T15:09:23;98898.25;;;1.96;74.01
27685;BME280;46113;50.130;8.526;2023-12-20T15:11:51;98900.06;;;1.94;75.08
27685;BME280;46113;50.130;8.526;2023-12-20T15:14:17;98898.88;;;2.06;74.71
27685;BME280;46113;50.130;8.526;2023-12-20T15:16:46;98880.81;;;1.98;74.01
27685;BME280;46113;50.130;8.526;2023-12-20T15:19:14;98882.38;;;2.04;74.19
27685;BME280;46113;50.130;8.526;2023-12-20T15:21:41;98880.38;;;2.13;74.47
27685;BME280;46113;50.130;8.526;2023-12-20T15:24:13;98899.81;;;2.03;75.06
27685;BME280;46113;50.130;8.526;2023-12-20T15:26:46;98886.94;;;1.97;74.13
27685;BME280;46113;50.130;8.526;2023-12-20T15:29:13;98896.34;;;2.02;74.24
27685;BME280;46113;50.130;8.526;2023-12-20T15:31:45;98885.09;;;2.00;73.62
27685;BME280;46113;50.130;8.526;2023-12-20T15:34:13;98886.38;;;1.85;74.05
27685;BME280;46113;50.130;8.526;2023-12-20T15:36:41;98882.75;;;1.91;73.91
27685;BME280;46113;50.130;8.526;2023-12-20T15:39:08;98885.22;;;1.96;73.60
27685;BME280;46113;50.130;8.526;2023-12-20T15:41:35;98891.06;;;2.04;73.99
27685;BME280;46113;50.130;8.526;2023-12-20T15:44:02;98887.44;;;2.10;74.11
27685;BME280;46113;50.130;8.526;2023-12-20T15:46:29;98893.06;;;1.94;74.19
27685;BME280;46113;50.130;8.526;2023-12-20T15:48:56;98888.50;;;2.02;74.10
27685;BME280;46113;50.130;8.526;2023-12-20T15:51:23;98883.28;;;2.02;74.51
27685;BME280;46113;50.130;8.526;2023-12-20T15:53:51;98894.16;;;1.87;74.34
27685;BME280;46113;50.130;8.526;2023-12-20T15:56:18;98899.59;;;1.79;74.86
27685;BME280;46113;50.130;8.526;2023-12-20T15:58:45;98903.03;;;2.11;74.43
27685;BME280;46113;50.130;8.526;2023-12-20T16:01:14;98904.09;;;2.06;75.10
27685;BME280;46113;50.130;8.526;2023-12-20T16:03:41;98901.34;;;2.10;75.03
27685;BME280;46113;50.130;8.526;2023-12-20T16:06:19;98895.53;;;2.00;74.69
27685;BME280;46113;50.130;8.526;2023-12-20T16:08:48;98890.31;;;2.00;74.69
27685;BME280;46113;50.130;8.526;2023-12-20T16:11:15;98892.41;;;1.87;74.35
27685;BME280;46113;50.130;8.526;2023-12-20T16:13:42;98886.53;;;2.11;74.38
27685;BME280;46113;50.130;8.526;2023-12-20T16:16:09;98886.72;;;2.05;74.38
27685;BME280;46113;50.130;8.526;2023-12-20T16:18:36;98885.16;;;1.97;73.66
27685;BME280;46113;50.130;8.526;2023-12-20T16:21:03;98895.78;;;1.91;73.38
27685;BME280;46113;50.130;8.526;2023-12-20T16:23:30;98891.28;;;1.96;73.14
27685;BME280;46113;50.130;8.526;2023-12-20T16:25:57;98893.47;;;1.80;74.71
27685;BME280;46113;50.130;8.526;2023-12-20T16:28:25;98903.19;;;2.07;74.06
27685;BME280;46113;50.130;8.526;2023-12-20T16:30:52;98891.47;;;1.90;74.52
27685;BME280;46113;50.130;8.526;2023-12-20T16:33:22;98895.69;;;1.94;74.55
27685;BME280;46113;50.130;8.526;2023-12-20T16:35:49;98900.09;;;1.92;74.61
27685;BME280;46113;50.130;8.526;2023-12-20T16:38:16;98899.19;;;1.93;74.37
27685;BME280;46113;50.130;8.526;2023-12-20T16:40:43;98890.91;;;2.10;74.49
27685;BME280;46113;50.130;8.526;2023-12-20T16:43:10;98898.16;;;2.00;74.26
27685;BME280;46113;50.130;8.526;2023-12-20T16:45:37;98893.25;;;1.88;74.04
27685;BME280;46113;50.130;8.526;2023-12-20T16:48:05;98889.56;;;1.97;74.31
27685;BME280;46113;50.130;8.526;2023-12-20T16:50:32;98897.31;;;1.98;74.39
27685;BME280;46113;50.130;8.526;2023-12-20T16:52:59;98891.56;;;1.87;74.85
27685;BME280;46113;50.130;8.526;2023-12-20T16:55:26;98899.13;;;1.96;74.26
27685;BME280;46113;50.130;8.526;2023-12-20T16:57:53;98886.03;;;1.98;74.30
27685;BME280;46113;50.130;8.526;2023-12-20T17:00:20;98893.00;;;1.97;75.13
27685;BME280;46113;50.130;8.526;2023-12-20T17:02:49;98883.59;;;1.92;74.63
27685;BME280;46113;50.130;8.526;2023-12-20T17:05:17;98888.69;;;1.96;74.97
27685;BME280;46113;50.130;8.526;2023-12-20T17:07:45;98879.78;;;2.04;74.79
27685;BME280;46113;50.130;8.526;2023-12-20T17:10:12;98885.34;;;1.91;74.80
27685;BME280;46113;50.130;8.526;2023-12-20T17:12:39;98885.09;;;2.00;74.47
27685;BME280;46113;50.130;8.526;2023-12-20T17:15:06;98881.50;;;1.73;74.53
27685;BME280;46113;50.130;8.526;2023-12-20T17:17:33;98870.38;;;1.98;74.56
27685;BME280;46113;50.130;8.526;2023-12-20T17:20:00;98870.38;;;1.98;74.56
27685;BME280;46113;50.130;8.526;2023-12-20T17:22:27;98872.28;;;1.93;74.93
27685;BME280;46113;50.130;8.526;2023-12-20T17:24:54;98877.22;;;2.02;74.83
27685;BME280;46113;50.130;8.526;2023-12-20T17:27:21;98874.44;;;2.08;75.33
27685;BME280;46113;50.130;8.526;2023-12-20T17:29:47;98863.16;;;2.06;75.38
27685;BME280;46113;50.130;8.526;2023-12-20T17:32:14;98865.84;;;2.05;74.74
27685;BME280;46113;50.130;8.526;2023-12-20T17:34:41;98865.28;;;1.93;74.21
27685;BME280;46113;50.130;8.526;2023-12-20T17:37:08;98871.06;;;2.05;74.17
27685;BME280;46113;50.130;8.526;2023-12-20T17:39:40;98886.00;;;1.99;74.23
27685;BME280;46113;50.130;8.526;2023-12-20T17:42:07;98882.09;;;1.83;74.89
27685;BME280;46113;50.130;8.526;2023-12-20T17:44:33;98880.91;;;1.95;74.97
27685;BME280;46113;50.130;8.526;2023-12-20T17:47:00;98881.63;;;2.00;75.05
27685;BME280;46113;50.130;8.526;2023-12-20T17:49:27;98877.53;;;1.91;74.45
27685;BME280;46113;50.130;8.526;2023-12-20T17:51:55;98893.28;;;1.86;74.79
27685;BME280;46113;50.130;8.526;2023-12-20T17:54:22;98890.81;;;1.82;74.99
27685;BME280;46113;50.130;8.526;2023-12-20T17:56:52;98890.44;;;1.96;75.25
27685;BME280;46113;50.130;8.526;2023-12-20T18:00:10;98884.84;;;1.78;75.78
27685;BME280;46113;50.130;8.526;2023-12-20T18:03:03;98882.91;;;1.85;75.42
27685;BME280;46113;50.130;8.526;2023-12-20T18:05:33;98885.50;;;1.53;76.84
27685;BME280;46113;50.130;8.526;2023-12-20T18:08:00;98878.72;;;1.79;77.14
27685;BME280;46113;50.130;8.526;2023-12-20T18:10:26;98879.59;;;1.80;76.98
27685;BME280;46113;50.130;8.526;2023-12-20T18:13:12;98875.41;;;1.72;77.17
27685;BME280;46113;50.130;8.526;2023-12-20T18:16:32;98870.69;;;1.87;76.88
27685;BME280;46113;50.130;8.526;2023-12-20T18:19:08;98867.97;;;1.58;77.20
27685;BME280;46113;50.130;8.526;2023-12-20T18:22:08;98864.19;;;1.70;77.22
27685;BME280;46113;50.130;8.526;2023-12-20T18:25:31;98860.03;;;1.63;77.59
27685;BME280;46113;50.130;8.526;2023-12-20T18:28:37;98856.44;;;1.67;77.55
27685;BME280;46113;50.130;8.526;2023-12-20T18:31:37;98847.44;;;1.78;76.88
27685;BME280;46113;50.130;8.526;2023-12-20T18:34:48;98841.13;;;1.86;76.97
27685;BME280;46113;50.130;8.526;2023-12-20T18:37:15;98841.75;;;1.95;77.02
27685;BME280;46113;50.130;8.526;2023-12-20T18:39:42;98836.19;;;1.77;77.26
27685;BME280;46113;50.130;8.526;2023-12-20T18:42:08;98849.59;;;1.95;76.82